Devon, Canada
Current Conditions -  °F | °C
As of 6:00 AM on Friday 28 Nov 2014 (Local Time) from CYEG Reporting Station
Light Snow Light Snow  
Wind Chill: -22°   Ceiling: 3200
Heat Index: -4°   Visibility: 3mi
Dew Point: -11°   Wind: 12mph
Humidity: 71%   Direction: 360°N
Pressure: 29.8"   Gusts: NA
Location:  53.37°N, 113.73°W
Report Text: CYEG 281300Z 36010KT 3SM -SN DRSN FEW022 OVC032 M20/M24 A2980 RMK SC2SC6 SLP159
Loading
Personal Weather Stations






























Interactive Weather Map New forecast layout! Learn more

10-Day Weather Forecast

Advertisements
Track Severe Weather on mobile